createdAt,value
2023-05-16T00:03:39.363Z,217170.00
2023-05-16T00:09:41.563Z,217143.00
2023-05-16T00:15:44.414Z,217143.00
2023-05-16T00:21:46.817Z,217143.00
2023-05-16T00:27:49.072Z,217113.00
2023-05-16T00:33:51.533Z,217093.00
2023-05-16T00:39:53.722Z,217065.00
2023-05-16T00:45:58.326Z,217030.00
2023-05-16T00:52:01.108Z,217014.00
2023-05-16T00:58:03.318Z,216986.00
2023-05-16T01:04:06.556Z,217030.00
2023-05-16T01:10:10.454Z,216978.00
2023-05-16T01:16:40.601Z,216860.00
2023-05-16T01:22:46.448Z,216860.00
2023-05-16T01:28:53.577Z,216901.00
2023-05-16T01:34:55.844Z,216972.00
2023-05-16T01:40:57.955Z,216978.00
2023-05-16T01:47:04.186Z,217030.00
2023-05-16T01:53:11.648Z,217044.00
2023-05-16T01:59:14.665Z,216986.00
2023-05-16T02:05:16.904Z,216986.00
2023-05-16T02:11:18.972Z,217022.00
2023-05-16T02:17:21.536Z,217038.00
2023-05-16T02:23:23.666Z,216978.00
2023-05-16T02:29:25.813Z,216956.00
2023-05-16T02:35:28.340Z,216956.00
2023-05-16T02:41:30.690Z,216860.00
2023-05-16T02:47:33.073Z,216816.00
2023-05-16T02:53:35.295Z,216782.00
2023-05-16T02:59:37.490Z,216782.00
2023-05-16T03:05:40.040Z,216761.00
2023-05-16T03:11:42.216Z,216788.00
2023-05-16T03:17:44.418Z,216774.00
2023-05-16T03:23:46.605Z,216802.00
2023-05-16T03:29:48.921Z,216868.00
2023-05-16T03:35:51.425Z,216874.00
2023-05-16T03:41:56.476Z,216956.00
2023-05-16T03:47:59.106Z,217079.00
2023-05-16T03:54:01.400Z,217143.00
2023-05-16T04:00:08.444Z,217178.00
2023-05-16T04:06:13.924Z,217263.00
2023-05-16T04:12:17.875Z,217271.00
2023-05-16T04:18:20.291Z,217255.00
2023-05-16T04:24:26.707Z,217299.00
2023-05-16T04:30:29.007Z,217348.00
2023-05-16T04:36:32.000Z,217504.00
2023-05-16T04:42:34.847Z,217538.00
2023-05-16T04:48:37.442Z,217582.00
2023-05-16T04:54:40.099Z,217716.00
2023-05-16T05:00:42.311Z,217781.00
2023-05-16T05:06:44.589Z,217951.00
2023-05-16T05:12:46.586Z,218037.00
2023-05-16T05:18:49.096Z,218250.00
2023-05-16T05:24:52.099Z,218472.00
2023-05-16T05:30:54.265Z,218876.00
2023-05-16T05:36:56.922Z,219119.00
2023-05-16T05:42:58.971Z,219070.00
2023-05-16T05:49:01.510Z,219247.00
2023-05-16T05:55:03.695Z,219205.00
2023-05-16T06:01:06.374Z,219220.00
2023-05-16T06:07:08.551Z,219261.00
2023-05-16T06:13:10.928Z,219305.00
2023-05-16T06:19:16.494Z,219220.00
2023-05-16T06:25:18.744Z,219177.00
2023-05-16T06:31:21.143Z,219499.00
2023-05-16T06:37:23.896Z,219833.00
2023-05-16T06:43:26.948Z,220000.00
2023-05-16T06:49:29.545Z,220302.00
2023-05-16T06:55:31.797Z,220316.00
2023-05-16T07:01:34.483Z,221917.00
2023-05-16T07:07:40.570Z,222834.00
2023-05-16T07:13:42.736Z,223418.00
2023-05-16T07:19:44.928Z,223062.00
2023-05-16T07:25:47.412Z,223739.00
2023-05-16T07:31:49.683Z,223641.00
2023-05-16T07:37:51.974Z,224527.00
2023-05-16T07:43:54.170Z,223784.00
2023-05-16T07:49:56.895Z,223515.00
2023-05-16T07:55:59.798Z,224347.00
2023-05-16T08:02:02.677Z,224121.00
2023-05-16T08:08:04.993Z,224145.00
2023-05-16T08:14:07.443Z,224361.00
2023-05-16T08:20:09.972Z,224406.00
2023-05-16T08:26:12.978Z,224255.00
2023-05-16T08:32:15.347Z,223204.00
2023-05-16T08:38:17.450Z,222729.00
2023-05-16T08:44:22.294Z,222492.00
2023-05-16T08:50:25.786Z,222545.00
2023-05-16T08:56:31.688Z,223725.00
2023-05-16T09:02:34.076Z,224046.00
2023-05-16T09:08:36.434Z,225223.00
2023-05-16T09:14:38.754Z,224151.00
2023-05-16T09:20:47.338Z,224008.00
2023-05-16T09:26:49.465Z,225073.00
2023-05-16T09:32:54.701Z,225368.00
2023-05-16T09:38:57.281Z,225121.00
2023-05-16T09:45:02.900Z,225253.00
2023-05-16T09:51:06.706Z,225368.00
2023-05-16T09:57:09.661Z,225588.00
2023-05-16T10:03:12.787Z,225277.00
2023-05-16T10:09:16.869Z,225572.00
2023-05-16T10:15:21.021Z,226035.00
2023-05-16T10:21:25.965Z,226164.00
2023-05-16T10:27:28.446Z,225059.00
2023-05-16T10:33:31.463Z,224548.00
2023-05-16T10:39:34.213Z,225097.00
2023-05-16T10:45:42.224Z,225596.00
2023-05-16T10:51:44.338Z,225207.00
2023-05-16T10:57:47.715Z,225746.00
2023-05-16T11:04:05.066Z,225657.00
2023-05-16T11:10:17.988Z,225307.00
2023-05-16T11:16:30.335Z,225247.00
2023-05-16T11:22:41.814Z,224962.00
2023-05-16T11:28:44.221Z,225247.00
2023-05-16T11:34:48.544Z,225695.00
2023-05-16T11:40:50.905Z,225596.00
2023-05-16T11:46:53.277Z,225760.00
2023-05-16T11:52:57.914Z,225768.00
2023-05-16T11:59:01.122Z,225143.00
2023-05-16T12:05:10.443Z,225083.00
2023-05-16T12:11:13.115Z,224895.00
2023-05-16T12:17:15.520Z,225014.00
2023-05-16T12:23:17.839Z,225315.00
2023-05-16T12:29:22.169Z,225051.00
2023-05-16T12:35:31.463Z,224632.00
2023-05-16T12:41:33.784Z,224277.00
2023-05-16T12:47:37.962Z,224113.00
2023-05-16T12:53:54.451Z,223978.00
2023-05-16T13:00:08.421Z,223948.00
2023-05-16T13:06:10.811Z,223948.00
2023-05-16T13:12:14.613Z,223927.00
2023-05-16T13:18:17.034Z,224024.00
2023-05-16T13:24:19.194Z,224137.00
2023-05-16T13:30:21.448Z,224277.00
2023-05-16T13:36:23.823Z,224369.00
2023-05-16T13:42:26.348Z,224425.00
2023-05-16T13:48:28.687Z,224662.00
2023-05-16T13:54:31.303Z,224457.00
2023-05-16T14:00:45.649Z,224255.00
2023-05-16T14:06:53.152Z,224091.00
2023-05-16T14:12:56.184Z,223964.00
2023-05-16T14:18:58.486Z,224030.00
2023-05-16T14:25:00.817Z,223948.00
2023-05-16T14:31:03.186Z,224038.00
2023-05-16T14:37:05.586Z,223978.00
2023-05-16T14:43:07.920Z,223846.00
2023-05-16T14:49:10.386Z,223814.00
2023-05-16T14:55:13.154Z,223747.00
2023-05-16T15:01:16.960Z,223717.00
2023-05-16T15:07:19.105Z,223606.00
2023-05-16T15:13:21.419Z,223485.00
2023-05-16T15:19:23.631Z,223479.00
2023-05-16T15:25:26.215Z,223471.00
2023-05-16T15:31:28.638Z,223479.00
2023-05-16T15:37:31.367Z,223396.00
2023-05-16T15:43:33.437Z,223323.00
2023-05-16T15:49:35.776Z,223226.00
2023-05-16T15:55:38.453Z,223137.00
2023-05-16T16:01:41.183Z,223012.00
2023-05-16T16:07:43.589Z,222899.00
2023-05-16T16:13:45.844Z,222821.00
2023-05-16T16:19:48.092Z,222767.00
2023-05-16T16:25:50.582Z,222699.00
2023-05-16T16:31:53.521Z,222602.00
2023-05-16T16:38:06.268Z,222492.00
2023-05-16T16:44:09.216Z,222410.00
2023-05-16T16:50:11.803Z,222308.00
2023-05-16T16:56:14.503Z,222191.00
2023-05-16T17:02:16.798Z,222087.00
2023-05-16T17:08:19.308Z,221977.00
2023-05-16T17:14:21.905Z,221858.00
2023-05-16T17:20:24.610Z,221700.00
2023-05-16T17:26:29.400Z,221587.00
2023-05-16T17:32:31.964Z,221470.00
2023-05-16T17:38:34.959Z,221353.00
2023-05-16T17:44:37.371Z,221221.00
2023-05-16T17:50:39.579Z,221134.00
2023-05-16T17:56:43.068Z,220996.00
2023-05-16T18:02:45.211Z,220864.00
2023-05-16T18:08:48.073Z,220756.00
2023-05-16T18:14:50.790Z,220607.00
2023-05-16T18:20:53.035Z,220579.00
2023-05-16T18:26:55.386Z,220443.00
2023-05-16T18:32:57.803Z,220340.00
2023-05-16T18:39:00.439Z,220253.00
2023-05-16T18:45:03.782Z,220122.00
2023-05-16T18:51:06.020Z,220057.00
2023-05-16T18:57:09.007Z,219943.00
2023-05-16T19:03:13.561Z,219839.00
2023-05-16T19:09:16.297Z,219768.00
2023-05-16T19:15:19.054Z,219652.00
2023-05-16T19:21:21.410Z,219580.00
2023-05-16T19:27:23.623Z,219474.00
2023-05-16T19:33:25.838Z,219414.00
2023-05-16T19:39:28.219Z,219327.00
2023-05-16T19:45:30.816Z,219233.00
2023-05-16T19:51:41.227Z,219141.00
2023-05-16T19:57:44.016Z,219040.00
2023-05-16T20:03:46.892Z,218974.00
2023-05-16T20:09:49.424Z,218874.00
2023-05-16T20:15:51.743Z,218816.00
2023-05-16T20:21:53.842Z,218729.00
2023-05-16T20:27:55.985Z,218646.00
2023-05-16T20:33:58.716Z,218631.00
2023-05-16T20:40:01.049Z,218553.00
2023-05-16T20:46:03.355Z,218531.00
2023-05-16T20:52:06.721Z,218486.00
2023-05-16T20:58:09.165Z,218417.00
2023-05-16T21:04:11.514Z,218332.00
2023-05-16T21:10:14.136Z,218266.00
2023-05-16T21:16:16.332Z,218208.00
2023-05-16T21:22:18.685Z,218160.00
2023-05-16T21:28:21.060Z,218088.00
2023-05-16T21:34:23.205Z,218001.00
2023-05-16T21:40:26.103Z,217897.00
2023-05-16T21:46:28.296Z,217801.00
2023-05-16T21:52:31.008Z,217752.00
2023-05-16T21:58:33.247Z,217680.00
2023-05-16T22:04:35.729Z,217625.00
2023-05-16T22:10:38.219Z,217538.00
2023-05-16T22:16:40.641Z,217504.00
2023-05-16T22:22:44.989Z,217447.00
2023-05-16T22:28:47.236Z,217433.00
2023-05-16T22:34:49.662Z,217376.00
2023-05-16T22:40:52.115Z,217370.00
2023-05-16T22:46:54.339Z,217354.00
2023-05-16T22:52:56.577Z,217311.00
2023-05-16T22:58:59.003Z,217277.00
2023-05-16T23:05:01.418Z,217277.00
2023-05-16T23:11:03.702Z,217235.00
2023-05-16T23:17:06.425Z,217235.00
2023-05-16T23:23:08.773Z,217221.00
2023-05-16T23:29:11.441Z,217205.00
2023-05-16T23:35:13.919Z,217189.00
2023-05-16T23:41:16.143Z,217176.00
2023-05-16T23:47:18.274Z,217213.00
2023-05-16T23:53:21.412Z,217176.00
2023-05-16T23:59:23.814Z,217143.00
